createdAt,value
2023-04-08T00:02:13.161Z,83.75
2023-04-08T00:04:42.715Z,82.84
2023-04-08T00:07:11.270Z,82.17
2023-04-08T00:09:39.145Z,81.18
2023-04-08T00:12:07.437Z,80.90
2023-04-08T00:14:35.326Z,81.94
2023-04-08T00:17:03.262Z,82.19
2023-04-08T00:19:31.198Z,84.28
2023-04-08T00:22:00.472Z,84.16
2023-04-08T00:24:28.352Z,84.68
2023-04-08T00:26:56.475Z,84.29
2023-04-08T00:29:24.433Z,85.32
2023-04-08T00:31:52.706Z,86.71
2023-04-08T00:34:20.960Z,84.76
2023-04-08T00:36:48.957Z,85.35
2023-04-08T00:39:18.326Z,82.61
2023-04-08T00:41:46.337Z,83.01
2023-04-08T00:44:14.180Z,85.18
2023-04-08T00:46:42.392Z,84.81
2023-04-08T00:49:10.532Z,84.96
2023-04-08T00:51:38.406Z,84.99
2023-04-08T00:54:06.502Z,85.15
2023-04-08T00:56:36.108Z,85.51
2023-04-08T00:59:05.431Z,85.88
2023-04-08T01:01:39.097Z,85.63
2023-04-08T01:04:14.208Z,84.82
2023-04-08T01:06:50.598Z,83.62
2023-04-08T01:09:20.629Z,86.19
2023-04-08T01:11:52.754Z,84.50
2023-04-08T01:14:24.523Z,82.09
2023-04-08T01:16:55.586Z,81.48
2023-04-08T01:19:30.352Z,82.43
2023-04-08T01:22:15.927Z,83.22
2023-04-08T01:24:46.684Z,84.30
2023-04-08T01:27:17.959Z,84.02
2023-04-08T01:29:48.598Z,84.22
2023-04-08T01:32:17.950Z,83.24
2023-04-08T01:34:46.661Z,83.17
2023-04-08T01:37:16.524Z,82.86
2023-04-08T01:39:45.702Z,82.82
2023-04-08T01:42:14.702Z,83.81
2023-04-08T01:44:44.619Z,85.62
2023-04-08T01:47:14.715Z,85.28
2023-04-08T01:49:44.012Z,84.00
2023-04-08T01:52:13.189Z,85.69
2023-04-08T01:54:41.104Z,85.38
2023-04-08T01:57:13.257Z,85.16
2023-04-08T01:59:43.490Z,84.72
2023-04-08T02:02:12.404Z,84.12
2023-04-08T02:04:40.560Z,84.25
2023-04-08T02:07:09.513Z,84.38
2023-04-08T02:09:37.405Z,84.93
2023-04-08T02:12:05.795Z,85.51
2023-04-08T02:14:33.743Z,83.65
2023-04-08T02:17:08.597Z,84.24
2023-04-08T02:19:44.352Z,85.17
2023-04-08T02:22:18.264Z,83.26
2023-04-08T02:24:48.086Z,82.65
2023-04-08T02:27:18.778Z,84.41
2023-04-08T02:29:48.323Z,83.39
2023-04-08T02:32:18.430Z,84.91
2023-04-08T02:34:47.619Z,83.18
2023-04-08T02:37:15.536Z,83.31
2023-04-08T02:39:43.432Z,83.77
2023-04-08T02:42:12.509Z,84.06
2023-04-08T02:44:40.404Z,82.72
2023-04-08T02:47:08.341Z,83.55
2023-04-08T02:49:37.854Z,83.94
2023-04-08T02:52:06.261Z,86.02
2023-04-08T02:54:34.144Z,83.91
2023-04-08T02:57:03.168Z,84.23
2023-04-08T02:59:31.034Z,84.18
2023-04-08T03:01:59.262Z,84.99
2023-04-08T03:04:27.230Z,83.76
2023-04-08T03:06:56.441Z,84.20
2023-04-08T03:09:24.345Z,83.32
2023-04-08T03:11:54.776Z,84.51
2023-04-08T03:14:22.805Z,84.46
2023-04-08T03:16:50.971Z,82.51
2023-04-08T03:19:18.918Z,82.50
2023-04-08T03:21:46.801Z,83.75
2023-04-08T03:24:16.027Z,83.64
2023-04-08T03:26:43.953Z,85.00
2023-04-08T03:29:11.802Z,84.08
2023-04-08T03:31:39.761Z,84.85
2023-04-08T03:34:07.657Z,84.25
2023-04-08T03:36:35.627Z,84.30
2023-04-08T03:39:03.882Z,82.76
2023-04-08T03:41:33.104Z,84.81
2023-04-08T03:44:01.176Z,83.59
2023-04-08T03:46:29.153Z,84.90
2023-04-08T03:48:57.045Z,83.29
2023-04-08T03:51:24.938Z,84.09
2023-04-08T03:53:52.754Z,84.74
2023-04-08T03:56:20.721Z,84.16
2023-04-08T03:58:50.064Z,83.22
2023-04-08T04:01:18.388Z,83.24
2023-04-08T04:03:46.590Z,84.09
2023-04-08T04:06:14.517Z,84.45
2023-04-08T04:08:42.336Z,83.60
2023-04-08T04:11:10.163Z,83.19
2023-04-08T04:13:38.001Z,83.39
2023-04-08T04:16:07.670Z,84.03
2023-04-08T04:18:35.668Z,83.57
2023-04-08T04:21:07.288Z,83.72
2023-04-08T04:23:35.359Z,83.69
2023-04-08T04:26:03.198Z,85.36
2023-04-08T04:28:30.977Z,83.02
2023-04-08T04:30:58.827Z,83.15
2023-04-08T04:33:28.246Z,84.02
2023-04-08T04:35:56.276Z,83.55
2023-04-08T04:38:24.236Z,82.52
2023-04-08T04:40:52.132Z,83.83
2023-04-08T04:43:19.972Z,84.92
2023-04-08T04:45:47.845Z,82.31
2023-04-08T04:48:15.713Z,83.54
2023-04-08T04:50:44.923Z,83.39
2023-04-08T04:53:12.771Z,82.04
2023-04-08T04:55:41.015Z,81.90
2023-04-08T04:58:08.882Z,82.66
2023-04-08T05:00:36.800Z,81.88
2023-04-08T05:03:04.800Z,82.49
2023-04-08T05:05:32.765Z,82.18
2023-04-08T05:08:01.940Z,82.65
2023-04-08T05:10:29.906Z,83.15
2023-04-08T05:12:57.781Z,81.23
2023-04-08T05:15:25.696Z,83.58
2023-04-08T05:17:53.596Z,83.33
2023-04-08T05:20:21.432Z,82.33
2023-04-08T05:22:50.673Z,82.80
2023-04-08T05:25:20.172Z,82.65
2023-04-08T05:27:48.041Z,81.05
2023-04-08T05:30:16.274Z,82.18
2023-04-08T05:32:44.141Z,80.14
2023-04-08T05:35:12.056Z,80.62
2023-04-08T05:37:39.939Z,80.86
2023-04-08T05:40:08.801Z,81.56
2023-04-08T05:42:38.204Z,79.61
2023-04-08T05:45:07.155Z,79.40
2023-04-08T05:47:35.167Z,79.56
2023-04-08T05:50:03.122Z,79.74
2023-04-08T05:52:31.165Z,79.36
2023-04-08T05:54:59.007Z,78.93
2023-04-08T05:57:26.879Z,79.63
2023-04-08T05:59:56.085Z,80.68
2023-04-08T06:02:24.082Z,80.34
2023-04-08T06:04:52.117Z,79.71
2023-04-08T06:07:19.956Z,81.04
2023-04-08T06:09:47.778Z,80.38
2023-04-08T06:12:15.659Z,79.93
2023-04-08T06:14:43.514Z,79.10
2023-04-08T06:17:12.765Z,80.80
2023-04-08T06:19:40.827Z,79.24
2023-04-08T06:22:08.665Z,78.72
2023-04-08T06:24:36.489Z,79.26
2023-04-08T06:27:04.489Z,78.60
2023-04-08T06:29:33.724Z,79.64
2023-04-08T06:32:01.674Z,78.13
2023-04-08T06:34:30.924Z,76.89
2023-04-08T06:36:58.851Z,77.05
2023-04-08T06:39:26.702Z,76.43
2023-04-08T06:41:54.752Z,78.31
2023-04-08T06:44:40.993Z,78.15
2023-04-08T06:47:08.848Z,77.47
2023-04-08T06:49:38.037Z,77.47
2023-04-08T06:52:06.732Z,76.61
2023-04-08T06:54:34.693Z,77.34
2023-04-08T06:57:02.567Z,78.72
2023-04-08T06:59:30.476Z,78.05
2023-04-08T07:01:58.472Z,78.13
2023-04-08T07:04:26.732Z,77.59
2023-04-08T07:06:56.085Z,79.17
2023-04-08T07:09:23.955Z,78.40
2023-04-08T07:11:51.798Z,77.87
2023-04-08T07:14:20.520Z,77.98
2023-04-08T07:16:48.377Z,77.14
2023-04-08T07:19:16.249Z,76.64
2023-04-08T07:21:44.129Z,76.49
2023-04-08T07:24:13.391Z,74.66
2023-04-08T07:26:41.277Z,76.01
2023-04-08T07:29:09.139Z,75.64
2023-04-08T07:31:37.018Z,75.63
2023-04-08T07:34:05.019Z,73.48
2023-04-08T07:36:33.033Z,73.73
2023-04-08T07:39:00.883Z,73.58
2023-04-08T07:41:30.121Z,72.07
2023-04-08T07:43:58.033Z,73.48
2023-04-08T07:46:25.964Z,75.43
2023-04-08T07:48:53.780Z,74.24
2023-04-08T07:51:21.614Z,75.31
2023-04-08T07:53:49.600Z,74.42
2023-04-08T07:56:18.647Z,75.95
2023-04-08T07:58:49.023Z,75.83
2023-04-08T08:01:19.981Z,73.99
2023-04-08T08:03:48.507Z,74.40
2023-04-08T08:06:17.089Z,74.03
2023-04-08T08:08:45.835Z,73.44
2023-04-08T08:11:13.870Z,75.59
2023-04-08T08:13:41.755Z,74.69
2023-04-08T08:16:12.101Z,73.68
2023-04-08T08:18:41.092Z,73.47
2023-04-08T08:21:09.644Z,73.29
2023-04-08T08:23:38.523Z,71.66
2023-04-08T08:26:09.741Z,74.18
2023-04-08T08:28:38.179Z,73.05
2023-04-08T08:31:06.589Z,72.66
2023-04-08T08:33:36.071Z,71.43
2023-04-08T08:36:05.219Z,70.77
2023-04-08T08:38:33.171Z,71.01
2023-04-08T08:41:02.029Z,70.86
2023-04-08T08:43:30.268Z,72.51
2023-04-08T08:45:58.177Z,70.36
2023-04-08T08:48:26.256Z,69.43
2023-04-08T08:50:55.576Z,70.39
2023-04-08T08:53:29.888Z,72.69
2023-04-08T08:56:13.767Z,68.71
2023-04-08T08:58:45.825Z,69.43
2023-04-08T09:01:37.458Z,69.03
2023-04-08T09:04:11.236Z,68.53
2023-04-08T09:06:41.281Z,67.45
2023-04-08T09:09:11.289Z,67.82
2023-04-08T09:11:40.892Z,69.32
2023-04-08T09:14:20.037Z,71.25
2023-04-08T09:16:48.147Z,70.00
2023-04-08T09:19:16.319Z,68.61
2023-04-08T09:21:46.068Z,70.05
2023-04-08T09:24:29.359Z,71.07
2023-04-08T09:26:57.366Z,69.79
2023-04-08T09:29:28.139Z,69.50
2023-04-08T09:32:00.392Z,69.81
2023-04-08T09:34:30.872Z,69.25
2023-04-08T09:37:00.339Z,69.50
2023-04-08T09:39:28.363Z,70.39
2023-04-08T09:42:02.025Z,67.34
2023-04-08T09:44:31.251Z,68.21
2023-04-08T09:47:07.317Z,66.96
2023-04-08T09:49:39.324Z,68.13
2023-04-08T09:52:12.899Z,65.62
2023-04-08T09:54:46.615Z,67.93
2023-04-08T09:57:18.885Z,66.86
2023-04-08T09:59:53.785Z,65.30
2023-04-08T10:02:30.559Z,65.56
2023-04-08T10:05:01.317Z,65.93
2023-04-08T10:07:31.244Z,67.08
2023-04-08T10:09:59.737Z,62.70
2023-04-08T10:12:27.839Z,61.29
2023-04-08T10:15:24.923Z,64.45
2023-04-08T10:17:54.326Z,60.92
2023-04-08T10:20:45.126Z,62.17
2023-04-08T10:23:15.607Z,62.73
2023-04-08T10:25:45.187Z,62.10
2023-04-08T10:28:26.300Z,60.29
2023-04-08T10:30:55.458Z,56.35
2023-04-08T10:33:32.689Z,55.82
2023-04-08T10:36:02.846Z,56.76
2023-04-08T10:38:32.808Z,56.70
2023-04-08T10:41:00.681Z,53.96
2023-04-08T10:43:34.059Z,55.44
2023-04-08T10:46:01.866Z,56.60
2023-04-08T10:48:30.084Z,60.04
2023-04-08T10:50:59.465Z,55.78
2023-04-08T10:53:29.161Z,58.70
2023-04-08T10:56:05.307Z,56.23
2023-04-08T10:58:33.262Z,56.77
2023-04-08T11:01:05.977Z,55.59
2023-04-08T11:03:34.803Z,57.09
2023-04-08T11:06:03.751Z,59.06
2023-04-08T11:08:32.841Z,59.49
2023-04-08T11:11:02.493Z,56.63
2023-04-08T11:13:30.813Z,56.31
2023-04-08T11:16:00.841Z,55.31
2023-04-08T11:18:29.375Z,54.12
2023-04-08T11:20:59.635Z,55.52
2023-04-08T11:23:28.271Z,55.25
2023-04-08T11:25:56.693Z,54.56
2023-04-08T11:28:26.384Z,54.25
2023-04-08T11:30:55.736Z,55.08
2023-04-08T11:33:27.084Z,54.03
2023-04-08T11:35:55.464Z,54.23
2023-04-08T11:38:24.681Z,53.10
2023-04-08T11:40:56.026Z,53.84
2023-04-08T11:43:26.243Z,55.88
2023-04-08T11:45:54.257Z,54.06
2023-04-08T11:48:22.107Z,52.87
2023-04-08T11:51:03.549Z,52.07
2023-04-08T11:53:31.504Z,51.18
2023-04-08T11:55:59.396Z,51.46
2023-04-08T11:58:28.628Z,52.56
2023-04-08T12:00:56.541Z,52.01
2023-04-08T12:03:24.529Z,53.36
2023-04-08T12:05:52.468Z,53.00
2023-04-08T12:08:20.622Z,52.89
2023-04-08T12:10:48.429Z,53.06
2023-04-08T12:13:16.273Z,52.43
2023-04-08T12:15:45.886Z,52.96
2023-04-08T12:18:13.764Z,53.83
2023-04-08T12:20:41.580Z,54.58
2023-04-08T12:23:09.401Z,54.62
2023-04-08T12:25:37.213Z,54.16
2023-04-08T12:28:05.081Z,53.36
2023-04-08T12:30:32.995Z,51.56
2023-04-08T12:33:02.453Z,51.37
2023-04-08T12:35:31.165Z,50.26
2023-04-08T12:37:59.028Z,50.54
2023-04-08T12:40:27.049Z,52.01
2023-04-08T12:42:54.957Z,51.11
2023-04-08T12:45:22.931Z,51.09
2023-04-08T12:47:51.642Z,50.39
2023-04-08T12:50:20.933Z,49.61
2023-04-08T12:52:48.751Z,49.08
2023-04-08T12:55:16.717Z,49.42
2023-04-08T12:57:44.563Z,49.92
2023-04-08T13:00:13.770Z,48.87
2023-04-08T13:02:42.646Z,47.99
2023-04-08T13:05:11.056Z,46.96
2023-04-08T13:07:40.500Z,46.57
2023-04-08T13:10:09.632Z,46.79
2023-04-08T13:12:40.066Z,46.35
2023-04-08T13:15:09.558Z,45.77
2023-04-08T13:17:37.395Z,46.03
2023-04-08T13:20:06.658Z,46.28
2023-04-08T13:22:34.609Z,46.23
2023-04-08T13:25:06.456Z,48.32
2023-04-08T13:27:34.374Z,47.58
2023-04-08T13:30:02.209Z,47.43
2023-04-08T13:32:30.181Z,47.99
2023-04-08T13:34:58.021Z,46.87
2023-04-08T13:37:25.865Z,47.69
2023-04-08T13:39:54.008Z,46.74
2023-04-08T13:42:23.496Z,46.63
2023-04-08T13:44:51.444Z,44.82
2023-04-08T13:47:19.359Z,46.42
2023-04-08T13:49:47.209Z,46.68
2023-04-08T13:52:15.744Z,46.97
2023-04-08T13:54:43.598Z,46.88
2023-04-08T13:57:11.539Z,46.88
2023-04-08T13:59:43.246Z,45.62
2023-04-08T14:02:12.991Z,44.25
2023-04-08T14:04:41.027Z,44.78
2023-04-08T14:07:09.200Z,43.83
2023-04-08T14:09:37.092Z,44.38
2023-04-08T14:12:05.134Z,43.57
2023-04-08T14:14:33.083Z,43.82
2023-04-08T14:17:02.308Z,44.04
2023-04-08T14:19:30.397Z,43.88
2023-04-08T14:21:58.268Z,44.58
2023-04-08T14:24:26.089Z,44.94
2023-04-08T14:26:53.972Z,44.66
2023-04-08T14:29:21.904Z,46.78
2023-04-08T14:31:49.788Z,45.64
2023-04-08T14:34:18.942Z,44.95
2023-04-08T14:36:47.102Z,44.67
2023-04-08T14:39:14.970Z,44.92
2023-04-08T14:41:42.784Z,45.57
2023-04-08T14:46:38.726Z,45.54
2023-04-08T14:49:07.244Z,47.36
2023-04-08T14:51:37.820Z,45.64
2023-04-08T14:54:05.814Z,46.65
2023-04-08T14:56:33.778Z,46.96
2023-04-08T14:59:01.672Z,45.53
2023-04-08T15:01:32.201Z,44.28
2023-04-08T15:04:00.679Z,44.25
2023-04-08T15:06:28.713Z,43.41
2023-04-08T15:08:58.518Z,42.69
2023-04-08T15:11:26.678Z,43.54
2023-04-08T15:13:54.513Z,41.88
2023-04-08T15:16:22.383Z,44.52
2023-04-08T15:18:50.556Z,42.31
2023-04-08T15:21:18.639Z,42.78
2023-04-08T15:23:46.593Z,43.36
2023-04-08T15:26:15.858Z,44.25
2023-04-08T15:28:43.715Z,44.06
2023-04-08T15:31:11.681Z,44.45
2023-04-08T15:33:41.431Z,43.43
2023-04-08T15:36:09.363Z,45.28
2023-04-08T15:38:37.288Z,44.11
2023-04-08T15:41:05.404Z,45.67
2023-04-08T15:43:34.683Z,44.24
2023-04-08T15:46:02.486Z,42.97
2023-04-08T15:48:30.399Z,43.04
2023-04-08T15:50:58.315Z,43.96
2023-04-08T15:53:26.501Z,43.05
2023-04-08T15:55:54.408Z,42.99
2023-04-08T15:58:22.205Z,42.51
2023-04-08T16:00:52.120Z,42.69
2023-04-08T16:03:20.114Z,42.51
2023-04-08T16:05:48.103Z,43.03
2023-04-08T16:08:16.268Z,43.09
2023-04-08T16:10:44.239Z,42.92
2023-04-08T16:13:12.114Z,42.87
2023-04-08T16:15:39.934Z,43.09
2023-04-08T16:18:09.212Z,43.62
2023-04-08T16:20:38.819Z,43.86
2023-04-08T16:23:06.699Z,43.53
2023-04-08T16:25:34.535Z,44.27
2023-04-08T16:28:02.418Z,43.85
2023-04-08T16:30:30.380Z,44.18
2023-04-08T16:32:58.277Z,43.58
2023-04-08T16:35:27.479Z,43.24
2023-04-08T16:37:55.468Z,43.79
2023-04-08T16:40:23.389Z,44.04
2023-04-08T16:42:51.244Z,44.03
2023-04-08T16:45:19.341Z,44.83
2023-04-08T16:47:47.260Z,45.50
2023-04-08T16:50:15.188Z,45.62
2023-04-08T16:52:49.371Z,45.99
2023-04-08T16:55:17.625Z,46.56
2023-04-08T16:57:45.826Z,46.74
2023-04-08T17:00:16.007Z,46.17
2023-04-08T17:02:44.967Z,45.95
2023-04-08T17:05:13.049Z,49.84
2023-04-08T17:07:41.013Z,51.29
2023-04-08T17:10:11.504Z,51.84
2023-04-08T17:12:39.401Z,51.91
2023-04-08T17:15:08.352Z,53.64
2023-04-08T17:17:36.213Z,53.15
2023-04-08T17:20:04.153Z,53.99
2023-04-08T17:22:32.156Z,53.73
2023-04-08T17:25:00.040Z,54.29
2023-04-08T17:27:29.238Z,55.84
2023-04-08T17:29:57.909Z,54.88
2023-04-08T17:32:25.883Z,54.79
2023-04-08T17:34:54.127Z,55.15
2023-04-08T17:37:22.428Z,55.05
2023-04-08T17:39:51.534Z,55.73
2023-04-08T17:42:22.394Z,56.16
2023-04-08T17:44:52.804Z,55.95
2023-04-08T17:47:21.056Z,56.55
2023-04-08T17:49:48.968Z,55.80
2023-04-08T17:52:16.979Z,56.40
2023-04-08T17:54:44.860Z,56.86
2023-04-08T17:57:12.929Z,56.13
2023-04-08T17:59:40.824Z,57.01
2023-04-08T18:02:10.235Z,56.31
2023-04-08T18:04:38.174Z,57.42
2023-04-08T18:07:06.012Z,57.41
2023-04-08T18:09:34.012Z,56.88
2023-04-08T18:12:01.881Z,57.14
2023-04-08T18:14:30.985Z,58.27
2023-04-08T18:16:58.880Z,58.28
2023-04-08T18:19:28.119Z,57.02
2023-04-08T18:21:56.239Z,57.42
2023-04-08T18:24:24.145Z,59.79
2023-04-08T18:27:01.481Z,57.08
2023-04-08T18:29:31.697Z,56.46
2023-04-08T18:31:59.602Z,56.87
2023-04-08T18:34:28.861Z,56.58
2023-04-08T18:36:56.811Z,55.99
2023-04-08T18:39:24.657Z,56.14
2023-04-08T18:41:52.484Z,55.95
2023-04-08T18:44:20.403Z,56.33
2023-04-08T18:46:48.252Z,56.59
2023-04-08T18:49:16.423Z,57.04
2023-04-08T18:51:55.437Z,56.30
2023-04-08T18:54:29.488Z,56.79
2023-04-08T18:56:57.606Z,56.22
2023-04-08T18:59:27.763Z,54.83
2023-04-08T19:01:55.851Z,55.48
2023-04-08T19:04:23.915Z,55.67
2023-04-08T19:06:53.132Z,55.05
2023-04-08T19:09:20.953Z,55.30
2023-04-08T19:11:49.342Z,53.90
2023-04-08T19:14:17.341Z,54.49
2023-04-08T19:16:45.994Z,55.10
2023-04-08T19:19:13.882Z,55.24
2023-04-08T19:21:41.784Z,55.14
2023-04-08T19:24:11.104Z,54.06
2023-04-08T19:26:38.972Z,54.05
2023-04-08T19:29:06.823Z,54.22
2023-04-08T19:31:34.783Z,53.35
2023-04-08T19:34:02.635Z,53.63
2023-04-08T19:36:30.751Z,53.61
2023-04-08T19:38:58.602Z,52.70
2023-04-08T19:41:27.796Z,52.39
2023-04-08T19:43:55.597Z,52.83
2023-04-08T19:46:23.470Z,53.79
2023-04-08T19:48:51.346Z,55.02
2023-04-08T19:51:22.506Z,54.60
2023-04-08T19:53:51.051Z,55.33
2023-04-08T19:56:19.832Z,54.05
2023-04-08T19:58:49.427Z,53.51
2023-04-08T20:01:19.220Z,53.64
2023-04-08T20:03:50.511Z,53.09
2023-04-08T20:06:18.707Z,53.17
2023-04-08T20:08:46.916Z,52.92
2023-04-08T20:11:14.792Z,54.43
2023-04-08T20:13:43.136Z,54.05
2023-04-08T20:16:12.402Z,53.77
2023-04-08T20:18:40.276Z,53.00
2023-04-08T20:21:10.181Z,53.42
2023-04-08T20:23:43.911Z,54.15
2023-04-08T20:26:12.633Z,53.92
2023-04-08T20:28:41.267Z,54.09
2023-04-08T20:31:09.240Z,54.12
2023-04-08T20:33:43.572Z,55.56
2023-04-08T20:36:12.368Z,54.29
2023-04-08T20:38:40.796Z,55.17
2023-04-08T20:41:08.693Z,55.15
2023-04-08T20:43:36.501Z,55.32
2023-04-08T20:46:04.549Z,55.06
2023-04-08T20:48:33.247Z,55.34
2023-04-08T20:51:02.849Z,56.02
2023-04-08T20:53:31.519Z,55.62
2023-04-08T20:55:59.651Z,55.26
2023-04-08T20:58:27.533Z,55.03
2023-04-08T21:00:55.723Z,55.43
2023-04-08T21:03:23.707Z,55.00
2023-04-08T21:05:52.742Z,55.82
2023-04-08T21:08:22.028Z,55.75
2023-04-08T21:10:49.847Z,55.25
2023-04-08T21:13:17.699Z,55.56
2023-04-08T21:15:45.567Z,55.10
2023-04-08T21:18:13.435Z,55.99
2023-04-08T21:20:41.813Z,55.95
2023-04-08T21:23:09.723Z,56.55
2023-04-08T21:25:39.028Z,56.15
2023-04-08T21:28:06.881Z,56.08
2023-04-08T21:30:34.722Z,56.55
2023-04-08T21:33:02.534Z,56.71
2023-04-08T21:35:30.451Z,56.99
2023-04-08T21:37:58.526Z,56.53
2023-04-08T21:40:26.585Z,56.75
2023-04-08T21:42:55.823Z,56.94
2023-04-08T21:45:24.802Z,56.68
2023-04-08T21:47:53.221Z,57.15
2023-04-08T21:50:21.302Z,57.01
2023-04-08T21:52:49.250Z,56.88
2023-04-08T21:55:17.176Z,56.91
2023-04-08T21:57:45.058Z,58.22
2023-04-08T22:00:15.223Z,57.57
2023-04-08T22:02:46.647Z,59.09
2023-04-08T22:05:15.526Z,58.37
2023-04-08T22:07:43.500Z,59.25
2023-04-08T22:10:12.507Z,59.26
2023-04-08T22:12:40.550Z,61.31
2023-04-08T22:15:09.746Z,61.34
2023-04-08T22:17:39.112Z,58.76
2023-04-08T22:20:08.045Z,61.07
2023-04-08T22:22:36.476Z,60.55
2023-04-08T22:25:04.407Z,58.43
2023-04-08T22:27:33.037Z,58.67
2023-04-08T22:30:00.903Z,59.44
2023-04-08T22:32:28.813Z,57.83
2023-04-08T22:34:58.148Z,57.82
2023-04-08T22:37:26.062Z,58.22
2023-04-08T22:39:53.976Z,57.97
2023-04-08T22:42:21.884Z,58.03
2023-04-08T22:44:49.774Z,59.35
2023-04-08T22:47:18.220Z,59.63
2023-04-08T22:49:46.174Z,61.23
2023-04-08T22:52:15.574Z,62.63
2023-04-08T22:54:43.460Z,60.84
2023-04-08T22:57:11.356Z,61.69
2023-04-08T22:59:39.227Z,61.91
2023-04-08T23:02:07.290Z,62.57
2023-04-08T23:04:35.423Z,62.75
2023-04-08T23:07:03.365Z,62.31
2023-04-08T23:09:32.625Z,63.77
2023-04-08T23:12:01.334Z,64.56
2023-04-08T23:14:29.246Z,62.57
2023-04-08T23:16:57.103Z,62.75
2023-04-08T23:19:24.987Z,60.22
2023-04-08T23:21:52.856Z,60.78
2023-04-08T23:24:20.790Z,63.52
2023-04-08T23:26:50.148Z,62.15
2023-04-08T23:29:18.047Z,61.28
2023-04-08T23:31:45.905Z,63.79
2023-04-08T23:34:13.775Z,62.92
2023-04-08T23:36:41.648Z,62.69
2023-04-08T23:39:09.563Z,61.90
2023-04-08T23:41:37.450Z,62.56
2023-04-08T23:44:07.097Z,62.57
2023-04-08T23:46:35.006Z,64.05
2023-04-08T23:49:02.992Z,64.69
2023-04-08T23:51:31.360Z,64.91
2023-04-08T23:53:59.257Z,65.41
2023-04-08T23:56:27.550Z,63.98
2023-04-08T23:58:55.490Z,64.05
